aviador You're here:

KUZA Decoded Metar

ROCK HILL in SC, USA
Report Time2018-01-18 10:54:00
UTC Time2018-01-18 11:40:52
Flight Rules vfr VFR
Wind280° at 04 kt
W.Decomp.*RWY 20: 0.3 kt HW 4.0 kt RCW
W.Rank280° ranks 17
Current wind is below 280° avg. (5.8)
Visibility9999 m
Phenomena:N/A
Clouds:N/A
Expected CloudBase > 1,600 ft AGL from Temp-Dew spread
CeilingNone
Temp-10°C (ISA -24)
Dew Point-14°C (73% RH)
AAT-14.8°C
QNH1026 hPa
Density Alt-2,707 ft
Elevation663 ft
Report Wrong Elevation
Raw Report
KUZA 181054Z AUTO 28004KT 10SM CLR M10/M14 A3031 RMK AO2 SLP281
T11001139=

Extra information for KUZA:More info

Metar Taf Metar & Taf Last 4 Metars F.Rules Stats Wind Profile Meteogram Temp Stats Airport Information Weather charts Add Link Nearby VenuesMetar ALERT Operation Metar Decoded Social comments

AIRNAV info for KUZA